Time;durP1;ratioP1;P1;durP2;ratioP2;P2;SDS_P1;SDS_P2;PMS_P1;PMS_P2;Temp;Humidity;BMP_temperature;BMP_pressure;BME280_temperature;BME280_humidity;BME280_pressure;Samples;Min_cycle;Max_cycle;Signal;HPM_P1;HPM_P2
2023/12/13 00:02:04;;;;;;;0.80;0.80;;;9.00;99.90;;;;;;5073449;28;20028;-82
2023/12/13 00:04:29;;;;;;;2.03;0.65;;;9.10;99.90;;;;;;5067111;28;20539;-83
2023/12/13 00:06:55;;;;;;;0.80;0.80;;;9.10;99.90;;;;;;5068586;28;20016;-83
2023/12/13 00:09:21;;;;;;;2.38;1.02;;;9.10;99.90;;;;;;5066053;28;20079;-86
2023/12/13 00:11:46;;;;;;;0.75;0.70;;;9.10;99.90;;;;;;5075432;28;20036;-83
2023/12/13 00:14:12;;;;;;;0.70;0.70;;;9.10;99.90;;;;;;5064836;28;20368;-82
2023/12/13 00:16:40;;;;;;;0.68;0.68;;;9.00;99.90;;;;;;5062848;28;20032;-83
2023/12/13 00:19:06;;;;;;;0.50;0.50;;;9.10;99.90;;;;;;5070584;28;20102;-84
2023/12/13 00:21:32;;;;;;;0.50;0.50;;;9.10;99.90;;;;;;5070861;28;20032;-83
2023/12/13 00:23:57;;;;;;;0.80;0.80;;;9.10;99.90;;;;;;5073369;28;20102;-83
2023/12/13 00:26:23;;;;;;;2.42;0.70;;;9.10;99.90;;;;;;5067741;28;20025;-83
2023/12/13 00:28:50;;;;;;;6.50;0.70;;;9.10;99.90;;;;;;5069335;28;20482;-83
2023/12/13 00:31:16;;;;;;;0.50;0.50;;;9.00;99.90;;;;;;5070396;28;20073;-83
2023/12/13 00:33:42;;;;;;;1.55;0.50;;;9.00;99.90;;;;;;5071592;28;20020;-83
2023/12/13 00:36:08;;;;;;;2.22;0.82;;;9.00;99.90;;;;;;5061845;28;20495;-83
2023/12/13 00:38:34;;;;;;;0.50;0.50;;;9.00;99.90;;;;;;5076750;28;20020;-83
2023/12/13 00:40:59;;;;;;;0.60;0.60;;;9.10;99.90;;;;;;5078387;28;20022;-83
2023/12/13 00:43:26;;;;;;;0.50;0.50;;;9.00;99.90;;;;;;5064958;28;20065;-82
2023/12/13 00:45:51;;;;;;;1.65;0.60;;;9.00;99.90;;;;;;5071739;28;20013;-83
2023/12/13 00:48:17;;;;;;;0.60;0.60;;;9.00;99.90;;;;;;5062181;28;20024;-82
2023/12/13 00:50:43;;;;;;;0.60;0.60;;;9.00;99.90;;;;;;5068294;28;20027;-83
2023/12/13 00:53:09;;;;;;;0.60;0.60;;;9.00;99.90;;;;;;5066041;28;20107;-83
2023/12/13 00:55:34;;;;;;;0.40;0.40;;;9.00;99.90;;;;;;5067064;28;20021;-83
2023/12/13 00:58:00;;;;;;;3.60;0.40;;;9.00;99.90;;;;;;5071851;28;20482;-83
2023/12/13 01:00:26;;;;;;;0.77;0.77;;;9.00;99.90;;;;;;5071831;28;20486;-82
2023/12/13 01:02:51;;;;;;;0.60;0.60;;;9.00;99.90;;;;;;5067605;28;20095;-83
2023/12/13 01:05:17;;;;;;;0.50;0.50;;;9.00;99.90;;;;;;5062871;28;20032;-82
2023/12/13 01:07:43;;;;;;;0.40;0.40;;;9.00;99.90;;;;;;5072730;28;20533;-83
2023/12/13 01:10:09;;;;;;;0.52;0.52;;;9.00;99.90;;;;;;5072236;28;20634;-82
2023/12/13 01:12:34;;;;;;;4.72;0.52;;;9.00;99.90;;;;;;5076556;28;20021;-83
2023/12/13 01:15:00;;;;;;;0.60;0.60;;;9.00;99.90;;;;;;5071595;28;20100;-83
2023/12/13 01:17:26;;;;;;;0.50;0.50;;;9.00;99.90;;;;;;5070657;28;20066;-83
2023/12/13 01:19:52;;;;;;;1.33;0.80;;;9.00;99.90;;;;;;5074606;28;20107;-84
2023/12/13 01:22:18;;;;;;;0.60;0.60;;;9.00;99.90;;;;;;5074781;28;20020;-82
2023/12/13 01:24:44;;;;;;;0.60;0.60;;;9.00;99.90;;;;;;5074842;28;20043;-83
2023/12/13 01:27:09;;;;;;;2.80;0.75;;;9.00;99.90;;;;;;5070863;28;20390;-84
2023/12/13 01:29:35;;;;;;;1.58;0.80;;;9.00;99.90;;;;;;5067371;28;20390;-83
2023/12/13 01:32:00;;;;;;;1.27;0.80;;;9.00;99.90;;;;;;5068523;28;20062;-83
2023/12/13 01:34:26;;;;;;;0.57;0.57;;;9.00;99.90;;;;;;5067975;28;20031;-83
2023/12/13 01:36:51;;;;;;;0.50;0.50;;;9.00;99.90;;;;;;5076362;28;20025;-83
2023/12/13 01:39:17;;;;;;;0.68;0.60;;;9.00;99.90;;;;;;5073430;28;20023;-83
2023/12/13 01:41:43;;;;;;;0.75;0.68;;;9.00;99.90;;;;;;5066712;28;20025;-82
2023/12/13 01:44:10;;;;;;;0.52;0.52;;;9.00;99.90;;;;;;5072992;28;20032;-83
2023/12/13 01:46:36;;;;;;;0.70;0.70;;;9.00;99.90;;;;;;5069846;28;20621;-82
2023/12/13 01:49:05;;;;;;;1.80;0.70;;;9.00;99.90;;;;;;5077187;28;20053;-83
2023/12/13 01:51:32;;;;;;;0.50;0.50;;;9.00;99.90;;;;;;5071793;28;20859;-84
2023/12/13 01:53:58;;;;;;;0.77;0.68;;;9.00;99.90;;;;;;5070546;28;20024;-83
2023/12/13 01:56:23;;;;;;;0.60;0.60;;;9.00;99.90;;;;;;5070871;28;20489;-83
2023/12/13 01:58:49;;;;;;;0.60;0.60;;;9.00;99.90;;;;;;5070634;28;20025;-83
2023/12/13 02:01:15;;;;;;;0.40;0.40;;;9.00;99.90;;;;;;5075381;28;20027;-84
2023/12/13 02:03:41;;;;;;;4.22;0.63;;;9.00;99.90;;;;;;5076337;28;20024;-83
2023/12/13 02:06:07;;;;;;;0.50;0.50;;;9.00;99.90;;;;;;5071863;28;20033;-83
2023/12/13 02:08:33;;;;;;;1.30;0.60;;;9.00;99.90;;;;;;5065639;28;20031;-83
2023/12/13 02:10:59;;;;;;;0.90;0.90;;;9.00;99.90;;;;;;5076777;28;20016;-83
2023/12/13 02:13:25;;;;;;;3.85;1.02;;;9.00;99.90;;;;;;5076167;28;20028;-83
2023/12/13 02:15:51;;;;;;;0.63;0.63;;;9.00;99.90;;;;;;5073735;28;20032;-83
2023/12/13 02:18:17;;;;;;;0.70;0.60;;;9.00;99.90;;;;;;5066741;28;20055;-84
2023/12/13 02:20:45;;;;;;;0.95;0.80;;;9.00;99.90;;;;;;5065186;28;20037;-83
2023/12/13 02:23:11;;;;;;;0.75;0.75;;;9.00;99.90;;;;;;5071903;28;20024;-83
2023/12/13 02:25:42;;;;;;;0.70;0.70;;;9.00;99.90;;;;;;5072760;28;20144;-83
2023/12/13 02:28:08;;;;;;;0.98;0.95;;;9.00;99.90;;;;;;5076019;28;20382;-84
2023/12/13 02:30:34;;;;;;;1.10;0.80;;;9.00;99.90;;;;;;5061263;28;20043;-83
2023/12/13 02:33:00;;;;;;;1.42;0.90;;;9.00;99.90;;;;;;5066071;28;20063;-86
2023/12/13 02:35:25;;;;;;;0.90;0.90;;;9.00;99.90;;;;;;5070961;28;20518;-83
2023/12/13 02:37:51;;;;;;;1.67;1.13;;;9.00;99.90;;;;;;5076139;28;20077;-84
2023/12/13 02:40:17;;;;;;;1.65;0.95;;;9.00;99.90;;;;;;5073658;28;20122;-82
2023/12/13 02:42:43;;;;;;;1.20;0.82;;;9.00;99.90;;;;;;5064145;28;20020;-82
2023/12/13 02:45:12;;;;;;;0.80;0.80;;;9.00;99.90;;;;;;5072217;28;20016;-86
2023/12/13 02:47:41;;;;;;;0.65;0.65;;;9.00;99.90;;;;;;5063857;28;20028;-84
2023/12/13 02:50:11;;;;;;;2.80;0.70;;;9.00;99.90;;;;;;5073341;28;20166;-82
2023/12/13 02:52:37;;;;;;;0.73;0.73;;;9.00;99.90;;;;;;5074105;28;20512;-82
2023/12/13 02:55:04;;;;;;;1.48;0.90;;;9.00;99.90;;;;;;5072886;28;20032;-83
2023/12/13 02:57:29;;;;;;;0.80;0.77;;;9.00;99.90;;;;;;5068896;28;20067;-83
2023/12/13 02:59:55;;;;;;;2.58;0.65;;;9.00;99.90;;;;;;5073224;28;20047;-82
2023/12/13 03:02:20;;;;;;;0.70;0.70;;;9.00;99.90;;;;;;5073759;28;20016;-83
2023/12/13 03:04:46;;;;;;;0.80;0.80;;;9.00;99.90;;;;;;5073569;28;20025;-83
2023/12/13 03:07:12;;;;;;;3.50;0.60;;;9.00;99.90;;;;;;5074056;28;20075;-83
2023/12/13 03:09:39;;;;;;;1.02;0.77;;;9.00;99.90;;;;;;5065435;28;20028;-83
2023/12/13 03:12:06;;;;;;;1.13;0.68;;;9.00;99.90;;;;;;5070951;28;20013;-82
2023/12/13 03:14:31;;;;;;;0.70;0.63;;;9.00;99.90;;;;;;5071430;28;20053;-83
2023/12/13 03:16:57;;;;;;;0.68;0.65;;;9.00;99.90;;;;;;5073911;28;20444;-84
2023/12/13 03:19:22;;;;;;;0.95;0.80;;;9.00;99.90;;;;;;5069509;28;20031;-83
2023/12/13 03:21:48;;;;;;;2.53;1.00;;;9.00;99.90;;;;;;5062882;28;20043;-83
2023/12/13 03:24:14;;;;;;;1.88;0.80;;;9.00;99.90;;;;;;5068730;28;20029;-83
2023/12/13 03:26:39;;;;;;;1.30;0.93;;;9.00;99.90;;;;;;5069478;28;20012;-83
2023/12/13 03:29:05;;;;;;;0.80;0.80;;;8.90;99.90;;;;;;5075271;28;20040;-83
2023/12/13 03:31:30;;;;;;;1.80;1.20;;;9.00;99.90;;;;;;5074904;28;20038;-83
2023/12/13 03:33:56;;;;;;;3.38;1.40;;;8.90;99.90;;;;;;5062018;28;20092;-83
2023/12/13 03:36:21;;;;;;;1.15;1.05;;;8.90;99.90;;;;;;5066591;28;20031;-83
2023/12/13 03:38:47;;;;;;;1.73;1.15;;;9.00;99.90;;;;;;5067964;28;20056;-84
2023/12/13 03:41:13;;;;;;;2.13;1.10;;;9.00;99.90;;;;;;5075745;28;20023;-83
2023/12/13 03:43:41;;;;;;;2.05;1.42;;;9.00;99.90;;;;;;5063008;28;20020;-83
2023/12/13 03:46:07;;;;;;;2.25;1.42;;;8.90;99.90;;;;;;5062557;28;20652;-83
2023/12/13 03:48:33;;;;;;;1.30;1.20;;;9.00;99.90;;;;;;5065852;28;20024;-84
2023/12/13 03:50:58;;;;;;;1.40;1.30;;;9.00;99.90;;;;;;5071197;28;20497;-86
2023/12/13 03:53:24;;;;;;;1.38;1.27;;;9.00;99.90;;;;;;5075597;28;20023;-83
2023/12/13 03:55:49;;;;;;;5.50;1.67;;;9.00;99.90;;;;;;5072888;28;20044;-83
2023/12/13 03:58:15;;;;;;;4.00;1.52;;;9.00;99.90;;;;;;5058280;28;20088;-83
2023/12/13 04:00:40;;;;;;;2.75;1.40;;;9.00;99.90;;;;;;5069367;28;20028;-84
2023/12/13 04:03:06;;;;;;;1.35;1.20;;;9.00;99.90;;;;;;5068088;28;20546;-83
2023/12/13 04:05:32;;;;;;;2.08;1.45;;;9.00;99.90;;;;;;5069727;28;20020;-84
2023/12/13 04:07:57;;;;;;;1.30;1.20;;;9.00;99.90;;;;;;5070316;28;20111;-83
2023/12/13 04:10:23;;;;;;;1.98;1.58;;;9.00;99.90;;;;;;5064145;28;20024;-84
2023/12/13 04:12:49;;;;;;;1.92;1.35;;;9.00;99.90;;;;;;5063815;28;20819;-83
2023/12/13 04:15:14;;;;;;;1.30;1.20;;;9.00;99.90;;;;;;5067977;28;20107;-83
2023/12/13 04:17:40;;;;;;;1.95;1.33;;;9.00;99.90;;;;;;5071730;28;20086;-83
2023/12/13 04:20:06;;;;;;;1.52;1.30;;;9.00;99.90;;;;;;5075323;28;20024;-83
2023/12/13 04:22:31;;;;;;;1.75;1.40;;;9.00;99.90;;;;;;5069367;28;20020;-87
2023/12/13 04:24:57;;;;;;;2.42;1.35;;;9.00;99.90;;;;;;5072957;28;20040;-83
2023/12/13 04:27:23;;;;;;;2.05;1.10;;;9.00;99.90;;;;;;5073659;28;20040;-83
2023/12/13 04:29:48;;;;;;;1.50;1.38;;;9.00;99.90;;;;;;5073528;28;20040;-83
2023/12/13 04:32:14;;;;;;;1.80;1.40;;;9.00;99.90;;;;;;5074025;28;20051;-83
2023/12/13 04:34:39;;;;;;;2.17;1.10;;;9.00;99.90;;;;;;5069104;28;20078;-84
2023/12/13 04:37:05;;;;;;;1.33;1.23;;;9.00;99.90;;;;;;5074362;28;20074;-84
2023/12/13 04:39:30;;;;;;;1.30;1.20;;;9.00;99.90;;;;;;5073656;28;20066;-84
2023/12/13 04:41:56;;;;;;;1.45;1.17;;;9.00;99.90;;;;;;5076437;28;20034;-83
2023/12/13 04:44:27;;;;;;;1.35;1.20;;;9.00;99.90;;;;;;5078700;28;20029;-83
2023/12/13 04:46:56;;;;;;;1.27;1.17;;;8.90;99.90;;;;;;5070858;28;20497;-86
2023/12/13 04:49:21;;;;;;;1.80;1.10;;;8.90;99.90;;;;;;5071153;28;20427;-86
2023/12/13 04:51:47;;;;;;;1.48;1.10;;;9.00;99.90;;;;;;5077316;28;20115;-87
2023/12/13 04:54:12;;;;;;;1.27;1.10;;;8.90;99.90;;;;;;5076363;28;20497;-86
2023/12/13 04:56:38;;;;;;;1.30;1.00;;;8.90;99.90;;;;;;5079663;28;20032;-83
2023/12/13 04:59:03;;;;;;;1.50;1.33;;;8.90;99.90;;;;;;5076360;28;20065;-83
2023/12/13 05:01:29;;;;;;;1.33;1.10;;;8.90;99.90;;;;;;5073645;28;20069;-83
2023/12/13 05:03:54;;;;;;;2.03;1.17;;;8.90;99.90;;;;;;5073677;28;20021;-83
2023/12/13 05:06:20;;;;;;;0.98;0.82;;;8.90;99.90;;;;;;5079186;28;20101;-83
2023/12/13 05:08:48;;;;;;;1.40;0.80;;;8.90;99.90;;;;;;5077954;28;20538;-83
2023/12/13 05:11:14;;;;;;;1.23;0.73;;;8.90;99.90;;;;;;5073534;28;20019;-83
2023/12/13 05:13:40;;;;;;;0.95;0.85;;;8.90;99.90;;;;;;5074049;28;20051;-82
2023/12/13 05:16:07;;;;;;;3.30;1.08;;;9.00;99.90;;;;;;5074738;28;20039;-83
2023/12/13 05:18:32;;;;;;;0.95;0.85;;;9.00;99.90;;;;;;5078267;28;20024;-83
2023/12/13 05:20:58;;;;;;;1.00;1.00;;;8.90;99.90;;;;;;5078098;28;20399;-83
2023/12/13 05:23:25;;;;;;;0.60;0.60;;;8.90;99.90;;;;;;5075008;28;20029;-84
2023/12/13 05:25:51;;;;;;;0.65;0.65;;;9.00;99.90;;;;;;5076166;28;20459;-84
2023/12/13 05:28:16;;;;;;;1.45;0.80;;;8.90;99.90;;;;;;5073590;28;20016;-84
2023/12/13 05:30:42;;;;;;;0.98;0.80;;;8.90;99.90;;;;;;5076174;28;20115;-83
2023/12/13 05:33:08;;;;;;;0.90;0.77;;;9.00;99.90;;;;;;5077107;28;20020;-84
2023/12/13 05:35:34;;;;;;;0.75;0.65;;;9.00;99.90;;;;;;5069520;28;20024;-84
2023/12/13 05:38:00;;;;;;;1.67;0.70;;;9.00;99.90;;;;;;5071212;28;20024;-83
2023/12/13 05:40:25;;;;;;;0.63;0.63;;;9.00;99.90;;;;;;5074827;28;20375;-83
2023/12/13 05:42:51;;;;;;;1.70;0.90;;;9.00;99.90;;;;;;5076453;28;20024;-84
2023/12/13 05:45:16;;;;;;;3.60;0.90;;;9.00;99.90;;;;;;5075226;28;20050;-83
2023/12/13 05:47:42;;;;;;;0.60;0.60;;;9.00;99.90;;;;;;5076518;28;20402;-83
2023/12/13 05:50:08;;;;;;;0.70;0.70;;;9.00;99.90;;;;;;5075370;28;20434;-84
2023/12/13 05:52:33;;;;;;;1.55;0.93;;;9.00;99.90;;;;;;5072638;28;20611;-84
2023/12/13 05:54:59;;;;;;;0.95;0.85;;;9.00;99.90;;;;;;5077599;28;20101;-84
2023/12/13 05:57:25;;;;;;;1.00;0.80;;;9.00;99.90;;;;;;5076368;28;20448;-84
2023/12/13 05:59:50;;;;;;;0.95;0.80;;;9.00;99.90;;;;;;5079684;28;20024;-85
2023/12/13 06:02:16;;;;;;;0.80;0.80;;;9.00;99.90;;;;;;5070943;28;20023;-84
2023/12/13 06:04:42;;;;;;;2.17;1.15;;;9.00;99.90;;;;;;5073292;28;20021;-84
2023/12/13 06:07:09;;;;;;;1.52;0.70;;;9.00;99.90;;;;;;5072745;28;20013;-84
2023/12/13 06:09:34;;;;;;;1.42;0.98;;;9.00;99.90;;;;;;5077652;28;20031;-84
2023/12/13 06:12:00;;;;;;;2.28;1.00;;;9.00;99.90;;;;;;5071427;28;20028;-84
2023/12/13 06:14:25;;;;;;;2.83;1.00;;;9.00;99.90;;;;;;5070670;28;20079;-84
2023/12/13 06:16:51;;;;;;;1.33;1.23;;;9.00;99.90;;;;;;5071476;28;20031;-83
2023/12/13 06:19:17;;;;;;;1.27;1.13;;;9.00;99.90;;;;;;5073998;28;20025;-83
2023/12/13 06:21:42;;;;;;;1.17;1.00;;;9.00;99.90;;;;;;5070625;28;20025;-83
2023/12/13 06:24:08;;;;;;;1.52;1.20;;;9.00;99.90;;;;;;5076027;28;20012;-84
2023/12/13 06:26:34;;;;;;;1.85;1.20;;;9.00;99.90;;;;;;5069426;28;20390;-83
2023/12/13 06:29:00;;;;;;;1.58;1.20;;;9.00;99.90;;;;;;5070218;28;20502;-84
2023/12/13 06:31:26;;;;;;;2.10;1.38;;;8.90;99.90;;;;;;5072867;28;20017;-84
2023/12/13 06:33:52;;;;;;;2.35;1.42;;;9.00;99.90;;;;;;5075691;28;20020;-85
2023/12/13 06:36:17;;;;;;;1.30;1.20;;;9.00;99.90;;;;;;5075541;28;20027;-85
2023/12/13 06:38:43;;;;;;;1.80;1.42;;;9.00;99.90;;;;;;5078879;28;20031;-86
2023/12/13 06:41:08;;;;;;;2.28;1.45;;;9.00;99.90;;;;;;5077603;28;20025;-86
2023/12/13 06:43:34;;;;;;;2.65;1.92;;;9.00;99.90;;;;;;5079770;28;20031;-85
2023/12/13 06:46:00;;;;;;;2.42;1.95;;;9.00;99.90;;;;;;5075387;28;20035;-87
2023/12/13 06:48:25;;;;;;;4.63;2.15;;;9.00;99.90;;;;;;5075296;28;20023;-85
2023/12/13 06:50:51;;;;;;;2.90;1.77;;;9.00;99.90;;;;;;5067587;28;20382;-87
2023/12/13 06:53:16;;;;;;;3.20;2.08;;;9.00;99.90;;;;;;5067113;28;20107;-86
2023/12/13 06:55:42;;;;;;;3.08;2.00;;;9.00;99.90;;;;;;5071502;28;20075;-85
2023/12/13 06:58:07;;;;;;;3.58;2.13;;;9.00;99.90;;;;;;5062440;28;20079;-86
2023/12/13 07:00:34;;;;;;;9.48;2.40;;;9.00;99.90;;;;;;5073531;28;20676;-87
2023/12/13 07:03:00;;;;;;;3.65;2.35;;;8.90;99.90;;;;;;5059603;28;20107;-86
2023/12/13 07:05:26;;;;;;;2.20;1.95;;;9.00;99.90;;;;;;5058604;28;20132;-86
2023/12/13 07:07:51;;;;;;;3.35;2.03;;;9.00;99.90;;;;;;5066205;28;20119;-87
2023/12/13 07:10:17;;;;;;;4.32;2.88;;;9.00;99.90;;;;;;5070408;28;20059;-87
2023/12/13 07:12:43;;;;;;;4.15;2.65;;;9.00;99.90;;;;;;5063956;28;20075;-86
2023/12/13 07:15:10;;;;;;;5.57;3.35;;;9.00;99.90;;;;;;5059912;28;20111;-86
2023/12/13 07:17:36;;;;;;;4.18;2.95;;;9.00;99.90;;;;;;5066840;28;20028;-86
2023/12/13 07:20:02;;;;;;;7.93;3.10;;;9.00;99.90;;;;;;5072690;28;20020;-86
2023/12/13 07:22:27;;;;;;;4.95;3.00;;;9.00;99.90;;;;;;5075277;28;20090;-86
2023/12/13 07:24:53;;;;;;;4.80;3.00;;;9.00;99.90;;;;;;5073645;28;20482;-86
2023/12/13 07:27:18;;;;;;;4.82;3.08;;;9.00;99.90;;;;;;5073903;28;20524;-87
2023/12/13 07:29:44;;;;;;;4.40;3.28;;;9.00;99.90;;;;;;5073629;28;20608;-87
2023/12/13 07:32:10;;;;;;;7.22;4.05;;;9.00;99.90;;;;;;5073340;28;20398;-87
2023/12/13 07:34:38;;;;;;;6.10;3.95;;;9.00;99.90;;;;;;5071407;28;20036;-87
2023/12/13 07:37:04;;;;;;;5.13;3.58;;;9.00;99.90;;;;;;5072121;28;20107;-86
2023/12/13 07:39:35;;;;;;;7.05;3.80;;;9.00;99.90;;;;;;5063049;28;20108;-87
2023/12/13 07:42:00;;;;;;;5.55;3.45;;;9.00;99.90;;;;;;5064962;28;20070;-87
2023/12/13 07:44:28;;;;;;;5.97;3.70;;;9.00;99.90;;;;;;5076425;28;20024;-86
2023/12/13 07:46:53;;;;;;;5.00;3.45;;;9.00;99.90;;;;;;5069178;28;20028;-87
2023/12/13 07:49:19;;;;;;;7.15;3.88;;;9.00;99.90;;;;;;5074644;28;20028;-87
2023/12/13 07:51:45;;;;;;;4.75;3.50;;;9.00;99.90;;;;;;5069538;28;20024;-86
2023/12/13 07:54:13;;;;;;;5.65;3.78;;;9.00;99.90;;;;;;5068581;28;20075;-87
2023/12/13 07:56:41;;;;;;;5.60;4.35;;;9.00;99.90;;;;;;5070609;28;20032;-86
2023/12/13 07:59:06;;;;;;;5.25;3.65;;;9.00;99.90;;;;;;5068800;28;20021;-84
2023/12/13 08:01:32;;;;;;;5.82;3.97;;;9.00;99.90;;;;;;5074140;28;20019;-87
2023/12/13 08:03:58;;;;;;;5.68;4.07;;;9.00;99.90;;;;;;5074518;28;20030;-86
2023/12/13 08:06:24;;;;;;;6.68;3.83;;;9.00;99.90;;;;;;5067323;28;20017;-86
2023/12/13 08:08:51;;;;;;;6.43;4.10;;;9.00;99.90;;;;;;5067130;28;20504;-87
2023/12/13 08:11:17;;;;;;;6.63;4.22;;;9.00;99.90;;;;;;5070777;28;20020;-85
2023/12/13 08:13:42;;;;;;;5.93;4.47;;;9.00;99.90;;;;;;5065112;28;20031;-87
2023/12/13 08:16:09;;;;;;;6.60;3.97;;;9.00;99.90;;;;;;5073663;28;20112;-87
2023/12/13 08:18:36;;;;;;;5.75;4.22;;;9.00;99.90;;;;;;5075373;28;20021;-85
2023/12/13 08:21:03;;;;;;;6.65;4.43;;;9.00;99.90;;;;;;5065175;28;20445;-86
2023/12/13 08:23:29;;;;;;;9.57;5.03;;;9.00;99.90;;;;;;5066466;28;20481;-86
2023/12/13 08:25:56;;;;;;;6.13;4.20;;;9.00;99.90;;;;;;5072941;28;20498;-87
2023/12/13 08:28:21;;;;;;;6.35;4.50;;;9.00;99.90;;;;;;5063601;28;20759;-86
2023/12/13 08:30:47;;;;;;;6.85;4.15;;;9.00;99.90;;;;;;5068877;28;20028;-86
2023/12/13 08:33:13;;;;;;;6.30;3.90;;;9.00;99.90;;;;;;5065882;28;20021;-86
2023/12/13 08:35:39;;;;;;;5.03;3.80;;;9.10;99.90;;;;;;5067246;28;20028;-88
2023/12/13 08:38:04;;;;;;;7.03;4.05;;;9.10;99.90;;;;;;5069121;28;20028;-87
2023/12/13 08:40:30;;;;;;;5.80;3.85;;;9.10;99.90;;;;;;5068242;28;20027;-86
2023/12/13 08:42:55;;;;;;;5.65;4.30;;;9.10;99.90;;;;;;5067860;28;20031;-86
2023/12/13 08:45:21;;;;;;;5.72;3.90;;;9.10;99.90;;;;;;5070572;28;20064;-86
2023/12/13 08:47:47;;;;;;;8.00;4.35;;;9.10;99.90;;;;;;5070510;28;20115;-84
2023/12/13 08:50:14;;;;;;;6.57;3.92;;;9.10;99.90;;;;;;5078143;28;20661;-85
2023/12/13 08:52:40;;;;;;;7.40;4.35;;;9.10;99.90;;;;;;5066703;28;20106;-86
2023/12/13 08:55:08;;;;;;;5.32;3.80;;;9.00;99.90;;;;;;5064969;28;20032;-83
2023/12/13 08:57:34;;;;;;;6.97;4.22;;;9.00;99.90;;;;;;5068846;28;20021;-84
2023/12/13 09:00:00;;;;;;;6.22;3.90;;;9.00;99.90;;;;;;5065255;28;20074;-84
2023/12/13 09:02:25;;;;;;;5.60;3.22;;;9.00;99.90;;;;;;5065722;28;20557;-87
2023/12/13 09:04:51;;;;;;;6.60;3.58;;;9.00;99.90;;;;;;5066950;28;20036;-84
2023/12/13 09:07:17;;;;;;;4.35;3.08;;;9.10;99.90;;;;;;5068677;28;20020;-85
2023/12/13 09:09:43;;;;;;;4.20;3.25;;;9.00;99.90;;;;;;5070351;28;20052;-85
2023/12/13 09:12:08;;;;;;;3.90;3.00;;;9.00;99.90;;;;;;5077189;28;20047;-86
2023/12/13 09:14:34;;;;;;;3.63;3.00;;;9.00;99.90;;;;;;5067987;28;20108;-86
2023/12/13 09:17:01;;;;;;;3.55;2.60;;;9.10;99.90;;;;;;5055394;28;20029;-83
2023/12/13 09:19:26;;;;;;;3.83;2.65;;;9.00;99.90;;;;;;5070008;28;20021;-83
2023/12/13 09:21:52;;;;;;;4.13;2.47;;;9.10;99.90;;;;;;5066402;28;20028;-85
2023/12/13 09:24:18;;;;;;;8.38;3.30;;;9.00;99.90;;;;;;5077614;28;20129;-86
2023/12/13 09:26:44;;;;;;;4.70;3.40;;;9.10;99.90;;;;;;5062736;28;20025;-87
2023/12/13 10:09:34;;;;;;;2.38;2.10;;;9.20;99.90;;;;;;5054887;28;20050;-86
2023/12/13 10:15:22;;;;;;;2.00;1.65;;;9.10;99.90;;;;;;5061618;28;20036;-91
2023/12/13 10:17:47;;;;;;;1.98;1.70;;;9.10;99.90;;;;;;5079991;28;20028;-90
2023/12/13 10:20:13;;;;;;;3.60;1.77;;;9.10;99.90;;;;;;5067626;28;20106;-91
2023/12/13 10:22:39;;;;;;;1.73;1.42;;;9.20;99.90;;;;;;5071567;28;20031;-91
2023/12/13 10:25:05;;;;;;;1.80;1.70;;;9.20;99.90;;;;;;5064329;28;20021;-90
2023/12/13 10:27:31;;;;;;;2.40;1.38;;;9.20;99.90;;;;;;5072184;28;20024;-89
2023/12/13 10:29:56;;;;;;;2.67;1.30;;;9.20;99.90;;;;;;5059863;28;20021;-90
2023/12/13 10:32:22;;;;;;;1.67;1.48;;;9.20;99.90;;;;;;5073985;28;20017;-90
2023/12/13 10:34:47;;;;;;;1.45;1.30;;;9.20;99.90;;;;;;5072523;28;20030;-87
2023/12/13 10:37:13;;;;;;;1.92;1.23;;;9.20;99.90;;;;;;5070583;28;20048;-87
2023/12/13 10:39:44;;;;;;;1.30;1.20;;;9.20;99.90;;;;;;5067710;28;20059;-87
2023/12/13 10:42:11;;;;;;;3.47;1.10;;;9.20;99.90;;;;;;5075130;28;20131;-89
2023/12/13 10:44:37;;;;;;;6.65;1.10;;;9.20;99.90;;;;;;5075048;28;20028;-88
2023/12/13 10:47:08;;;;;;;1.63;1.15;;;9.20;99.90;;;;;;5062464;28;20367;-86
2023/12/13 10:49:35;;;;;;;;;;;9.10;99.90;;;;;;5067620;28;20478;-87
2023/12/13 10:52:00;;;;;;;;;;;9.20;99.90;;;;;;5067509;28;19908;-87
2023/12/13 10:54:27;;;;;;;;;;;9.20;99.90;;;;;;5069728;28;19919;-87
2023/12/13 10:56:53;;;;;;;;;;;9.20;99.90;;;;;;5063095;28;19904;-86
2023/12/13 10:59:19;;;;;;;;;;;9.20;99.90;;;;;;5067746;28;19908;-87
2023/12/13 11:01:46;;;;;;;;;;;9.20;99.90;;;;;;5078522;28;20286;-88
2023/12/13 11:04:17;;;;;;;;;;;9.20;99.90;;;;;;5076385;28;19919;-87
2023/12/13 11:06:45;;;;;;;;;;;9.20;99.90;;;;;;5069296;28;19977;-89
2023/12/13 11:09:15;;;;;;;;;;;9.20;99.90;;;;;;5065146;28;20002;-87
2023/12/13 11:11:44;;;;;;;;;;;9.20;99.90;;;;;;5075845;28;19909;-87
2023/12/13 11:14:15;;;;;;;;;;;9.20;99.90;;;;;;5069501;28;19908;-88
2023/12/13 11:16:48;;;;;;;;;;;9.20;99.90;;;;;;5076490;28;20297;-88
2023/12/13 11:19:15;;;;;;;;;;;9.20;99.90;;;;;;5072430;28;20274;-88
2023/12/13 11:21:41;;;;;;;;;;;9.20;99.90;;;;;;5073985;28;20366;-87
2023/12/13 11:24:15;;;;;;;;;;;9.20;99.90;;;;;;5080407;28;19922;-88
2023/12/13 11:26:46;;;;;;;;;;;9.20;99.90;;;;;;5079608;28;19907;-86
2023/12/13 11:29:12;;;;;;;;;;;9.20;99.90;;;;;;5071415;28;19942;-85
2023/12/13 11:31:47;;;;;;;;;;;9.20;99.90;;;;;;5073342;28;19999;-84
2023/12/13 11:34:12;;;;;;;;;;;9.20;99.90;;;;;;5069642;28;19975;-85
2023/12/13 11:36:39;;;;;;;;;;;9.20;99.90;;;;;;5079490;28;19969;-85
2023/12/13 11:39:07;;;;;;;;;;;9.20;99.90;;;;;;5070239;28;19912;-86
2023/12/13 11:41:33;;;;;;;;;;;9.20;99.90;;;;;;5075244;28;19983;-85
2023/12/13 11:43:58;;;;;;;;;;;9.20;99.90;;;;;;5071174;28;20019;-85
2023/12/13 11:46:25;;;;;;;;;;;9.20;99.90;;;;;;5067966;28;19908;-85
2023/12/13 11:48:51;;;;;;;;;;;9.20;99.90;;;;;;5075966;28;19912;-86
2023/12/13 11:51:16;;;;;;;;;;;9.20;99.90;;;;;;5070099;28;20321;-85
2023/12/13 11:53:42;;;;;;;;;;;9.20;99.90;;;;;;5068671;28;19908;-85
2023/12/13 11:56:08;;;;;;;;;;;9.20;99.90;;;;;;5071327;28;19938;-86
2023/12/13 11:58:33;;;;;;;;;;;9.20;99.90;;;;;;5068281;28;19987;-85
2023/12/13 12:00:59;;;;;;;;;;;9.20;99.90;;;;;;5072101;28;20053;-85
2023/12/13 12:03:25;;;;;;;;;;;9.20;99.90;;;;;;5067973;28;19962;-85
2023/12/13 12:05:50;;;;;;;;;;;9.20;99.90;;;;;;5070317;28;19908;-86
2023/12/13 12:08:21;;;;;;;;;;;9.30;99.90;;;;;;5068328;28;19909;-85
2023/12/13 12:10:47;;;;;;;;;;;9.20;99.90;;;;;;5065501;28;19915;-85
2023/12/13 12:13:13;;;;;;;;;;;9.30;99.90;;;;;;5068514;28;19916;-84
2023/12/13 12:15:39;;;;;;;;;;;9.30;99.90;;;;;;5081663;28;19909;-85
2023/12/13 12:18:05;;;;;;;;;;;9.30;99.90;;;;;;5066863;28;19912;-86
2023/12/13 12:20:30;;;;;;;;;;;9.30;99.90;;;;;;5066158;28;20344;-85
2023/12/13 12:22:58;;;;;;;;;;;9.30;99.90;;;;;;5062847;28;19912;-85
2023/12/13 12:25:25;;;;;;;;;;;9.30;99.90;;;;;;5063147;28;19913;-79
2023/12/13 12:27:50;;;;;;;;;;;13.50;99.90;;;;;;5063738;28;20000;-78
2023/12/13 12:30:21;;;;;;;;;;;15.40;99.90;;;;;;5064663;28;20389;-78
2023/12/13 12:32:47;;;;;;;;;;;15.90;99.90;;;;;;5065157;28;19991;-79
2023/12/13 12:35:13;;;;;;;;;;;16.20;99.90;;;;;;5069269;28;20002;-79
2023/12/13 12:37:38;;;;;;;;;;;16.20;99.90;;;;;;5062460;28;20002;-79
2023/12/13 12:40:06;;;;;;;;;;;16.20;99.90;;;;;;5065631;28;19915;-79
2023/12/13 12:42:31;;;;;;;;;;;16.40;99.90;;;;;;5066189;28;20293;-79
2023/12/13 12:44:57;;;;;;;;;;;16.30;99.90;;;;;;5064739;28;19912;-82
2023/12/13 12:47:23;;;;;;;;;;;16.20;99.90;;;;;;5062256;28;19935;-81
2023/12/13 12:49:49;;;;;;;;;;;15.80;99.90;;;;;;5070795;28;20301;-82
2023/12/13 12:52:15;;;;;;;;;;;15.50;99.90;;;;;;5069344;28;20387;-82
2023/12/13 12:54:40;;;;;;;;;;;15.40;99.90;;;;;;5063283;28;19995;-79
2023/12/13 12:57:06;;;;;;;;;;;15.20;99.90;;;;;;5061586;28;19911;-79
2023/12/13 12:59:31;;;;;;;;;;;15.20;99.90;;;;;;5068528;28;19966;-79
2023/12/13 13:01:57;;;;;;;;;;;15.10;99.90;;;;;;5076410;28;20357;-80
2023/12/13 13:04:22;;;;;;;;;;;15.10;99.90;;;;;;5073634;28;19912;-79
2023/12/13 13:06:48;;;;;;;;;;;15.10;99.90;;;;;;5071700;28;19915;-79
2023/12/13 13:09:13;;;;;;;;;;;15.00;99.90;;;;;;5073522;28;20062;-79
2023/12/13 13:11:39;;;;;;;;;;;15.00;99.90;;;;;;5069115;28;19915;-79
2023/12/13 13:14:06;;;;;;;;;;;14.90;99.90;;;;;;5073701;28;20023;-79
2023/12/13 13:16:32;;;;;;;;;;;14.90;99.90;;;;;;5078916;28;20024;-79
2023/12/13 13:18:57;;;;;;;;;;;14.90;99.90;;;;;;5076930;28;19930;-80
2023/12/13 13:21:23;;;;;;;;;;;14.80;99.90;;;;;;5076873;28;19923;-79
2023/12/13 13:23:48;;;;;;;;;;;14.80;99.90;;;;;;5074476;28;19915;-78
2023/12/13 13:26:14;;;;;;;;;;;14.80;99.90;;;;;;5068990;28;19915;-87
2023/12/13 13:28:39;;;;;;;;;;;14.70;99.90;;;;;;5076022;28;21117;-88
2023/12/13 13:31:05;;;;;;;;;;;13.40;99.90;;;;;;5066196;28;19911;-88
2023/12/13 13:33:31;;;;;;;;;;;12.30;99.90;;;;;;5079947;28;20014;-88
2023/12/13 13:35:57;;;;;;;;;;;11.70;99.90;;;;;;5071657;28;19935;-90
2023/12/13 13:38:22;;;;;;;;;;;11.20;99.90;;;;;;5071933;28;20759;-89
2023/12/13 13:40:48;;;;;;;;;;;10.90;99.90;;;;;;5085002;28;19908;-87
2023/12/13 13:43:14;;;;;;;;;;;10.70;99.90;;;;;;5074319;28;19909;-88
2023/12/13 13:45:40;;;;;;;;;;;10.50;99.90;;;;;;5063204;28;19939;-88
2023/12/13 13:48:06;;;;;;;;;;;10.40;99.90;;;;;;5075238;28;20435;-87
2023/12/13 13:50:31;;;;;;;;;;;10.30;99.90;;;;;;5078046;28;20030;-88
2023/12/13 13:52:57;;;;;;;;;;;10.20;99.90;;;;;;5083029;28;19955;-88